sensor_id;sensor_type;location;lat;lon;timestamp;P1;durP1;ratioP1;P2;durP2;ratioP2
20000;SDS011;10161;41.188;-8.642;2022-07-24T00:00:58;17.50;;;5.20;;
20000;SDS011;10161;41.188;-8.642;2022-07-24T00:03:29;14.27;;;4.80;;
20000;SDS011;10161;41.188;-8.642;2022-07-24T00:05:59;16.43;;;5.20;;
20000;SDS011;10161;41.188;-8.642;2022-07-24T00:08:32;14.23;;;5.37;;
20000;SDS011;10161;41.188;-8.642;2022-07-24T00:10:59;12.77;;;4.40;;
20000;SDS011;10161;41.188;-8.642;2022-07-24T00:13:26;17.80;;;5.90;;
20000;SDS011;10161;41.188;-8.642;2022-07-24T00:15:53;20.97;;;5.20;;
20000;SDS011;10161;41.188;-8.642;2022-07-24T00:18:20;12.67;;;4.20;;
20000;SDS011;10161;41.188;-8.642;2022-07-24T00:20:47;12.17;;;4.20;;
20000;SDS011;10161;41.188;-8.642;2022-07-24T00:23:30;23.60;;;5.00;;
20000;SDS011;10161;41.188;-8.642;2022-07-24T00:26:14;21.43;;;6.17;;
20000;SDS011;10161;41.188;-8.642;2022-07-24T00:28:48;26.80;;;5.70;;
20000;SDS011;10161;41.188;-8.642;2022-07-24T00:31:26;23.53;;;5.63;;
20000;SDS011;10161;41.188;-8.642;2022-07-24T00:33:53;19.50;;;5.20;;
20000;SDS011;10161;41.188;-8.642;2022-07-24T00:36:20;20.60;;;6.27;;
20000;SDS011;10161;41.188;-8.642;2022-07-24T00:38:48;21.53;;;5.33;;
20000;SDS011;10161;41.188;-8.642;2022-07-24T00:41:15;25.90;;;6.03;;
20000;SDS011;10161;41.188;-8.642;2022-07-24T00:43:58;15.00;;;5.83;;
20000;SDS011;10161;41.188;-8.642;2022-07-24T00:46:26;19.30;;;5.70;;
20000;SDS011;10161;41.188;-8.642;2022-07-24T00:48:53;20.33;;;5.43;;
20000;SDS011;10161;41.188;-8.642;2022-07-24T00:51:20;19.33;;;5.70;;
20000;SDS011;10161;41.188;-8.642;2022-07-24T00:53:48;16.93;;;6.20;;
20000;SDS011;10161;41.188;-8.642;2022-07-24T00:56:15;17.83;;;5.67;;
20000;SDS011;10161;41.188;-8.642;2022-07-24T00:58:43;19.53;;;5.47;;
20000;SDS011;10161;41.188;-8.642;2022-07-24T01:01:11;13.40;;;4.60;;
20000;SDS011;10161;41.188;-8.642;2022-07-24T01:03:38;12.20;;;4.53;;
20000;SDS011;10161;41.188;-8.642;2022-07-24T01:06:05;20.80;;;5.80;;
20000;SDS011;10161;41.188;-8.642;2022-07-24T01:08:33;18.73;;;5.43;;
20000;SDS011;10161;41.188;-8.642;2022-07-24T01:11:12;19.17;;;5.70;;
20000;SDS011;10161;41.188;-8.642;2022-07-24T01:14:03;22.23;;;5.77;;
20000;SDS011;10161;41.188;-8.642;2022-07-24T01:16:54;17.47;;;5.80;;
20000;SDS011;10161;41.188;-8.642;2022-07-24T01:19:40;17.23;;;5.97;;
20000;SDS011;10161;41.188;-8.642;2022-07-24T01:22:27;16.73;;;5.50;;
20000;SDS011;10161;41.188;-8.642;2022-07-24T01:25:05;17.33;;;6.13;;
20000;SDS011;10161;41.188;-8.642;2022-07-24T01:27:32;21.47;;;5.90;;
20000;SDS011;10161;41.188;-8.642;2022-07-24T01:29:59;17.47;;;6.20;;
20000;SDS011;10161;41.188;-8.642;2022-07-24T01:32:26;22.27;;;6.70;;
20000;SDS011;10161;41.188;-8.642;2022-07-24T01:34:54;20.77;;;7.00;;
20000;SDS011;10161;41.188;-8.642;2022-07-24T01:37:22;18.00;;;6.03;;
20000;SDS011;10161;41.188;-8.642;2022-07-24T01:39:49;24.37;;;6.57;;
20000;SDS011;10161;41.188;-8.642;2022-07-24T01:42:16;20.63;;;6.77;;
20000;SDS011;10161;41.188;-8.642;2022-07-24T01:44:44;14.27;;;5.67;;
20000;SDS011;10161;41.188;-8.642;2022-07-24T01:50:08;25.97;;;7.07;;
20000;SDS011;10161;41.188;-8.642;2022-07-24T01:52:37;29.60;;;6.73;;
20000;SDS011;10161;41.188;-8.642;2022-07-24T01:55:05;23.57;;;6.20;;
20000;SDS011;10161;41.188;-8.642;2022-07-24T01:57:32;22.73;;;6.57;;
20000;SDS011;10161;41.188;-8.642;2022-07-24T01:59:59;22.20;;;5.30;;
20000;SDS011;10161;41.188;-8.642;2022-07-24T02:02:27;22.10;;;5.80;;
20000;SDS011;10161;41.188;-8.642;2022-07-24T02:04:54;23.80;;;6.00;;
20000;SDS011;10161;41.188;-8.642;2022-07-24T02:07:21;17.43;;;5.67;;
20000;SDS011;10161;41.188;-8.642;2022-07-24T02:09:49;18.53;;;5.30;;
20000;SDS011;10161;41.188;-8.642;2022-07-24T02:12:27;22.40;;;6.30;;
20000;SDS011;10161;41.188;-8.642;2022-07-24T02:14:54;18.33;;;5.60;;
20000;SDS011;10161;41.188;-8.642;2022-07-24T02:17:22;19.90;;;5.67;;
20000;SDS011;10161;41.188;-8.642;2022-07-24T02:22:53;20.37;;;5.77;;
20000;SDS011;10161;41.188;-8.642;2022-07-24T02:25:22;18.97;;;6.00;;
20000;SDS011;10161;41.188;-8.642;2022-07-24T02:30:52;20.60;;;5.47;;
20000;SDS011;10161;41.188;-8.642;2022-07-24T02:33:19;17.23;;;5.60;;
20000;SDS011;10161;41.188;-8.642;2022-07-24T02:35:46;18.63;;;5.67;;
20000;SDS011;10161;41.188;-8.642;2022-07-24T02:38:13;20.90;;;4.90;;
20000;SDS011;10161;41.188;-8.642;2022-07-24T02:40:41;16.13;;;5.37;;
20000;SDS011;10161;41.188;-8.642;2022-07-24T02:43:08;16.90;;;6.10;;
20000;SDS011;10161;41.188;-8.642;2022-07-24T02:45:35;21.57;;;5.83;;
20000;SDS011;10161;41.188;-8.642;2022-07-24T02:48:03;14.67;;;5.43;;
20000;SDS011;10161;41.188;-8.642;2022-07-24T02:50:31;20.63;;;6.20;;
20000;SDS011;10161;41.188;-8.642;2022-07-24T02:53:00;23.93;;;6.40;;
20000;SDS011;10161;41.188;-8.642;2022-07-24T02:55:27;16.00;;;5.40;;
20000;SDS011;10161;41.188;-8.642;2022-07-24T03:00:41;14.60;;;5.60;;
20000;SDS011;10161;41.188;-8.642;2022-07-24T03:03:08;15.20;;;5.70;;
20000;SDS011;10161;41.188;-8.642;2022-07-24T03:08:56;21.13;;;6.40;;
20000;SDS011;10161;41.188;-8.642;2022-07-24T03:11:23;16.47;;;5.53;;
20000;SDS011;10161;41.188;-8.642;2022-07-24T03:13:52;20.10;;;6.30;;
20000;SDS011;10161;41.188;-8.642;2022-07-24T03:16:19;12.70;;;5.43;;
20000;SDS011;10161;41.188;-8.642;2022-07-24T03:18:46;15.43;;;5.40;;
20000;SDS011;10161;41.188;-8.642;2022-07-24T03:21:13;19.33;;;6.67;;
20000;SDS011;10161;41.188;-8.642;2022-07-24T03:23:41;16.27;;;5.47;;
20000;SDS011;10161;41.188;-8.642;2022-07-24T03:26:08;14.63;;;6.57;;
20000;SDS011;10161;41.188;-8.642;2022-07-24T03:28:35;14.87;;;5.53;;
20000;SDS011;10161;41.188;-8.642;2022-07-24T03:31:03;19.10;;;6.13;;
20000;SDS011;10161;41.188;-8.642;2022-07-24T03:33:30;15.57;;;5.10;;
20000;SDS011;10161;41.188;-8.642;2022-07-24T03:35:57;14.30;;;5.70;;
20000;SDS011;10161;41.188;-8.642;2022-07-24T03:38:24;17.60;;;6.37;;
20000;SDS011;10161;41.188;-8.642;2022-07-24T03:40:51;14.40;;;5.80;;
20000;SDS011;10161;41.188;-8.642;2022-07-24T03:43:18;18.80;;;5.97;;
20000;SDS011;10161;41.188;-8.642;2022-07-24T03:45:45;18.67;;;6.30;;
20000;SDS011;10161;41.188;-8.642;2022-07-24T03:48:13;21.67;;;6.30;;
20000;SDS011;10161;41.188;-8.642;2022-07-24T03:50:40;16.07;;;6.07;;
20000;SDS011;10161;41.188;-8.642;2022-07-24T03:53:07;23.37;;;6.87;;
20000;SDS011;10161;41.188;-8.642;2022-07-24T03:55:34;20.83;;;6.60;;
20000;SDS011;10161;41.188;-8.642;2022-07-24T03:58:01;21.90;;;6.60;;
20000;SDS011;10161;41.188;-8.642;2022-07-24T04:00:28;17.60;;;7.07;;
20000;SDS011;10161;41.188;-8.642;2022-07-24T04:02:55;22.33;;;6.50;;
20000;SDS011;10161;41.188;-8.642;2022-07-24T04:05:24;19.67;;;6.53;;
20000;SDS011;10161;41.188;-8.642;2022-07-24T04:07:51;14.33;;;6.00;;
20000;SDS011;10161;41.188;-8.642;2022-07-24T04:10:18;13.83;;;5.93;;
20000;SDS011;10161;41.188;-8.642;2022-07-24T04:12:45;19.30;;;6.10;;
20000;SDS011;10161;41.188;-8.642;2022-07-24T04:15:12;21.57;;;6.27;;
20000;SDS011;10161;41.188;-8.642;2022-07-24T04:17:39;17.53;;;5.37;;
20000;SDS011;10161;41.188;-8.642;2022-07-24T04:20:07;14.90;;;6.00;;
20000;SDS011;10161;41.188;-8.642;2022-07-24T04:22:37;12.77;;;5.53;;
20000;SDS011;10161;41.188;-8.642;2022-07-24T04:25:05;17.77;;;5.70;;
20000;SDS011;10161;41.188;-8.642;2022-07-24T04:27:33;18.67;;;5.37;;
20000;SDS011;10161;41.188;-8.642;2022-07-24T04:30:00;20.13;;;5.80;;
20000;SDS011;10161;41.188;-8.642;2022-07-24T04:32:27;17.07;;;5.33;;
20000;SDS011;10161;41.188;-8.642;2022-07-24T04:34:54;13.60;;;5.30;;
20000;SDS011;10161;41.188;-8.642;2022-07-24T04:37:21;24.50;;;6.33;;
20000;SDS011;10161;41.188;-8.642;2022-07-24T04:42:51;13.47;;;4.90;;
20000;SDS011;10161;41.188;-8.642;2022-07-24T04:45:18;25.73;;;6.50;;
20000;SDS011;10161;41.188;-8.642;2022-07-24T04:47:45;17.97;;;5.53;;
20000;SDS011;10161;41.188;-8.642;2022-07-24T04:50:12;14.97;;;5.43;;
20000;SDS011;10161;41.188;-8.642;2022-07-24T04:52:39;14.90;;;4.70;;
20000;SDS011;10161;41.188;-8.642;2022-07-24T04:55:07;14.73;;;6.03;;
20000;SDS011;10161;41.188;-8.642;2022-07-24T04:57:34;18.70;;;6.00;;
20000;SDS011;10161;41.188;-8.642;2022-07-24T05:00:04;23.40;;;5.43;;
20000;SDS011;10161;41.188;-8.642;2022-07-24T05:02:32;20.73;;;6.00;;
20000;SDS011;10161;41.188;-8.642;2022-07-24T05:04:59;22.47;;;6.07;;
20000;SDS011;10161;41.188;-8.642;2022-07-24T05:09:56;25.40;;;7.03;;
20000;SDS011;10161;41.188;-8.642;2022-07-24T05:12:24;23.50;;;6.33;;
20000;SDS011;10161;41.188;-8.642;2022-07-24T05:14:51;19.93;;;6.40;;
20000;SDS011;10161;41.188;-8.642;2022-07-24T05:17:19;18.80;;;6.27;;
20000;SDS011;10161;41.188;-8.642;2022-07-24T05:19:46;19.60;;;6.20;;
20000;SDS011;10161;41.188;-8.642;2022-07-24T05:25:04;20.80;;;6.80;;
20000;SDS011;10161;41.188;-8.642;2022-07-24T05:27:32;18.73;;;5.90;;
20000;SDS011;10161;41.188;-8.642;2022-07-24T05:29:59;16.87;;;5.80;;
20000;SDS011;10161;41.188;-8.642;2022-07-24T05:32:27;18.97;;;6.40;;
20000;SDS011;10161;41.188;-8.642;2022-07-24T05:34:54;16.80;;;5.90;;
20000;SDS011;10161;41.188;-8.642;2022-07-24T05:40:25;23.67;;;6.17;;
20000;SDS011;10161;41.188;-8.642;2022-07-24T05:42:52;17.43;;;5.47;;
20000;SDS011;10161;41.188;-8.642;2022-07-24T05:45:37;17.80;;;6.00;;
20000;SDS011;10161;41.188;-8.642;2022-07-24T05:48:05;14.40;;;5.03;;
20000;SDS011;10161;41.188;-8.642;2022-07-24T05:50:32;19.37;;;5.53;;
20000;SDS011;10161;41.188;-8.642;2022-07-24T05:52:59;21.47;;;5.57;;
20000;SDS011;10161;41.188;-8.642;2022-07-24T05:55:26;22.47;;;5.53;;
20000;SDS011;10161;41.188;-8.642;2022-07-24T05:57:54;24.47;;;5.83;;
20000;SDS011;10161;41.188;-8.642;2022-07-24T06:00:21;27.23;;;6.80;;
20000;SDS011;10161;41.188;-8.642;2022-07-24T06:02:48;15.63;;;4.70;;
20000;SDS011;10161;41.188;-8.642;2022-07-24T06:05:16;17.53;;;5.20;;
20000;SDS011;10161;41.188;-8.642;2022-07-24T06:07:43;22.80;;;5.70;;
20000;SDS011;10161;41.188;-8.642;2022-07-24T06:10:11;13.87;;;4.40;;
20000;SDS011;10161;41.188;-8.642;2022-07-24T06:12:38;17.53;;;5.27;;
20000;SDS011;10161;41.188;-8.642;2022-07-24T06:15:05;17.53;;;4.90;;
20000;SDS011;10161;41.188;-8.642;2022-07-24T06:17:33;18.70;;;4.47;;
20000;SDS011;10161;41.188;-8.642;2022-07-24T06:20:00;20.90;;;5.50;;
20000;SDS011;10161;41.188;-8.642;2022-07-24T06:22:28;15.33;;;4.40;;
20000;SDS011;10161;41.188;-8.642;2022-07-24T06:24:55;15.67;;;4.30;;
20000;SDS011;10161;41.188;-8.642;2022-07-24T06:27:22;11.40;;;4.47;;
20000;SDS011;10161;41.188;-8.642;2022-07-24T06:29:59;17.60;;;5.27;;
20000;SDS011;10161;41.188;-8.642;2022-07-24T06:32:26;13.27;;;4.53;;
20000;SDS011;10161;41.188;-8.642;2022-07-24T06:35:04;12.33;;;4.43;;
20000;SDS011;10161;41.188;-8.642;2022-07-24T06:37:33;15.57;;;5.10;;
20000;SDS011;10161;41.188;-8.642;2022-07-24T06:40:00;18.33;;;5.10;;
20000;SDS011;10161;41.188;-8.642;2022-07-24T06:42:28;17.20;;;4.90;;
20000;SDS011;10161;41.188;-8.642;2022-07-24T06:44:54;15.67;;;4.50;;
20000;SDS011;10161;41.188;-8.642;2022-07-24T06:47:21;19.83;;;5.20;;
20000;SDS011;10161;41.188;-8.642;2022-07-24T06:49:48;20.90;;;5.20;;
20000;SDS011;10161;41.188;-8.642;2022-07-24T06:52:15;16.50;;;4.87;;
20000;SDS011;10161;41.188;-8.642;2022-07-24T06:54:44;20.83;;;5.37;;
20000;SDS011;10161;41.188;-8.642;2022-07-24T06:57:11;21.07;;;5.57;;
20000;SDS011;10161;41.188;-8.642;2022-07-24T06:59:38;21.13;;;4.80;;
20000;SDS011;10161;41.188;-8.642;2022-07-24T07:02:05;12.00;;;4.30;;
20000;SDS011;10161;41.188;-8.642;2022-07-24T07:07:39;13.57;;;5.80;;
20000;SDS011;10161;41.188;-8.642;2022-07-24T07:10:09;14.73;;;4.83;;
20000;SDS011;10161;41.188;-8.642;2022-07-24T07:15:53;17.40;;;4.30;;
20000;SDS011;10161;41.188;-8.642;2022-07-24T07:18:20;20.47;;;5.57;;
20000;SDS011;10161;41.188;-8.642;2022-07-24T07:20:47;18.53;;;4.90;;
20000;SDS011;10161;41.188;-8.642;2022-07-24T07:23:18;13.30;;;4.40;;
20000;SDS011;10161;41.188;-8.642;2022-07-24T07:25:48;17.50;;;6.37;;
20000;SDS011;10161;41.188;-8.642;2022-07-24T07:28:15;15.87;;;5.27;;
20000;SDS011;10161;41.188;-8.642;2022-07-24T07:30:42;13.00;;;5.23;;
20000;SDS011;10161;41.188;-8.642;2022-07-24T07:33:09;14.63;;;5.87;;
20000;SDS011;10161;41.188;-8.642;2022-07-24T07:35:36;10.17;;;4.93;;
20000;SDS011;10161;41.188;-8.642;2022-07-24T07:38:03;16.60;;;5.30;;
20000;SDS011;10161;41.188;-8.642;2022-07-24T07:40:30;9.93;;;5.17;;
20000;SDS011;10161;41.188;-8.642;2022-07-24T07:42:59;12.17;;;5.57;;
20000;SDS011;10161;41.188;-8.642;2022-07-24T07:45:28;19.63;;;6.77;;
20000;SDS011;10161;41.188;-8.642;2022-07-24T07:47:55;13.97;;;5.67;;
20000;SDS011;10161;41.188;-8.642;2022-07-24T07:50:22;15.83;;;6.50;;
20000;SDS011;10161;41.188;-8.642;2022-07-24T07:52:49;18.97;;;5.80;;
20000;SDS011;10161;41.188;-8.642;2022-07-24T07:55:16;13.33;;;6.13;;
20000;SDS011;10161;41.188;-8.642;2022-07-24T07:57:43;17.83;;;6.63;;
20000;SDS011;10161;41.188;-8.642;2022-07-24T08:00:12;15.53;;;6.23;;
20000;SDS011;10161;41.188;-8.642;2022-07-24T08:02:39;14.40;;;5.70;;
20000;SDS011;10161;41.188;-8.642;2022-07-24T08:05:06;13.30;;;5.30;;
20000;SDS011;10161;41.188;-8.642;2022-07-24T08:07:34;8.40;;;4.77;;
20000;SDS011;10161;41.188;-8.642;2022-07-24T08:10:01;9.27;;;5.00;;
20000;SDS011;10161;41.188;-8.642;2022-07-24T08:12:28;10.00;;;6.60;;
20000;SDS011;10161;41.188;-8.642;2022-07-24T08:14:55;12.93;;;6.77;;
20000;SDS011;10161;41.188;-8.642;2022-07-24T08:17:23;15.67;;;5.30;;
20000;SDS011;10161;41.188;-8.642;2022-07-24T08:19:50;13.93;;;4.83;;
20000;SDS011;10161;41.188;-8.642;2022-07-24T08:22:17;15.67;;;6.60;;
20000;SDS011;10161;41.188;-8.642;2022-07-24T08:27:46;10.40;;;4.83;;
20000;SDS011;10161;41.188;-8.642;2022-07-24T08:30:13;11.30;;;4.97;;
20000;SDS011;10161;41.188;-8.642;2022-07-24T08:32:42;10.90;;;4.50;;
20000;SDS011;10161;41.188;-8.642;2022-07-24T08:35:12;11.50;;;4.60;;
20000;SDS011;10161;41.188;-8.642;2022-07-24T08:37:40;11.10;;;5.20;;
20000;SDS011;10161;41.188;-8.642;2022-07-24T08:40:08;10.03;;;5.23;;
20000;SDS011;10161;41.188;-8.642;2022-07-24T08:42:36;11.73;;;5.10;;
20000;SDS011;10161;41.188;-8.642;2022-07-24T08:45:04;10.20;;;4.87;;
20000;SDS011;10161;41.188;-8.642;2022-07-24T08:47:31;11.10;;;5.00;;
20000;SDS011;10161;41.188;-8.642;2022-07-24T08:50:00;12.80;;;5.80;;
20000;SDS011;10161;41.188;-8.642;2022-07-24T08:52:28;11.67;;;5.30;;
20000;SDS011;10161;41.188;-8.642;2022-07-24T08:54:55;9.90;;;4.93;;
20000;SDS011;10161;41.188;-8.642;2022-07-24T08:57:22;22.47;;;15.57;;
20000;SDS011;10161;41.188;-8.642;2022-07-24T08:59:49;10.00;;;6.33;;
20000;SDS011;10161;41.188;-8.642;2022-07-24T09:02:16;12.07;;;5.50;;
20000;SDS011;10161;41.188;-8.642;2022-07-24T09:04:43;12.00;;;5.30;;
20000;SDS011;10161;41.188;-8.642;2022-07-24T09:07:14;12.80;;;5.83;;
20000;SDS011;10161;41.188;-8.642;2022-07-24T09:09:43;13.90;;;5.40;;
20000;SDS011;10161;41.188;-8.642;2022-07-24T09:12:24;12.00;;;5.37;;
20000;SDS011;10161;41.188;-8.642;2022-07-24T09:14:51;9.73;;;5.00;;
20000;SDS011;10161;41.188;-8.642;2022-07-24T09:17:35;11.80;;;5.33;;
20000;SDS011;10161;41.188;-8.642;2022-07-24T09:20:02;7.50;;;4.83;;
20000;SDS011;10161;41.188;-8.642;2022-07-24T09:22:35;9.87;;;4.77;;
20000;SDS011;10161;41.188;-8.642;2022-07-24T09:25:08;9.17;;;4.53;;
20000;SDS011;10161;41.188;-8.642;2022-07-24T09:27:40;15.17;;;5.43;;
20000;SDS011;10161;41.188;-8.642;2022-07-24T09:30:12;11.00;;;5.10;;
20000;SDS011;10161;41.188;-8.642;2022-07-24T09:32:50;12.97;;;5.10;;
20000;SDS011;10161;41.188;-8.642;2022-07-24T09:35:21;7.90;;;4.80;;
20000;SDS011;10161;41.188;-8.642;2022-07-24T09:37:54;10.00;;;4.93;;
20000;SDS011;10161;41.188;-8.642;2022-07-24T09:40:23;9.60;;;4.80;;
20000;SDS011;10161;41.188;-8.642;2022-07-24T09:42:55;14.00;;;5.33;;
20000;SDS011;10161;41.188;-8.642;2022-07-24T09:48:37;9.77;;;5.00;;
20000;SDS011;10161;41.188;-8.642;2022-07-24T09:51:08;8.83;;;4.87;;
20000;SDS011;10161;41.188;-8.642;2022-07-24T09:53:38;14.97;;;5.03;;
20000;SDS011;10161;41.188;-8.642;2022-07-24T09:56:05;9.47;;;5.17;;
20000;SDS011;10161;41.188;-8.642;2022-07-24T09:58:35;14.17;;;5.73;;
20000;SDS011;10161;41.188;-8.642;2022-07-24T10:01:04;12.63;;;5.70;;
20000;SDS011;10161;41.188;-8.642;2022-07-24T10:03:32;9.40;;;4.90;;
20000;SDS011;10161;41.188;-8.642;2022-07-24T10:06:01;6.97;;;4.50;;
20000;SDS011;10161;41.188;-8.642;2022-07-24T10:08:30;5.47;;;4.20;;
20000;SDS011;10161;41.188;-8.642;2022-07-24T10:11:00;5.20;;;3.80;;
20000;SDS011;10161;41.188;-8.642;2022-07-24T10:13:27;10.03;;;4.87;;
20000;SDS011;10161;41.188;-8.642;2022-07-24T10:16:01;6.50;;;4.50;;
20000;SDS011;10161;41.188;-8.642;2022-07-24T10:18:38;10.90;;;4.30;;
20000;SDS011;10161;41.188;-8.642;2022-07-24T10:21:15;9.17;;;4.40;;
20000;SDS011;10161;41.188;-8.642;2022-07-24T10:23:54;4.47;;;3.67;;
20000;SDS011;10161;41.188;-8.642;2022-07-24T10:26:35;8.60;;;4.60;;
20000;SDS011;10161;41.188;-8.642;2022-07-24T10:29:05;8.20;;;4.40;;
20000;SDS011;10161;41.188;-8.642;2022-07-24T10:31:35;7.13;;;4.40;;
20000;SDS011;10161;41.188;-8.642;2022-07-24T10:34:03;18.43;;;5.43;;
20000;SDS011;10161;41.188;-8.642;2022-07-24T10:36:36;8.30;;;4.30;;
20000;SDS011;10161;41.188;-8.642;2022-07-24T10:39:09;6.57;;;4.27;;
20000;SDS011;10161;41.188;-8.642;2022-07-24T10:41:41;6.60;;;4.20;;
20000;SDS011;10161;41.188;-8.642;2022-07-24T10:44:12;6.13;;;4.17;;
20000;SDS011;10161;41.188;-8.642;2022-07-24T10:49:58;6.60;;;3.83;;
20000;SDS011;10161;41.188;-8.642;2022-07-24T10:52:27;7.37;;;3.70;;
20000;SDS011;10161;41.188;-8.642;2022-07-24T10:57:56;6.87;;;3.97;;
20000;SDS011;10161;41.188;-8.642;2022-07-24T11:00:25;5.73;;;3.77;;
20000;SDS011;10161;41.188;-8.642;2022-07-24T11:02:59;9.20;;;4.47;;
20000;SDS011;10161;41.188;-8.642;2022-07-24T11:05:28;5.63;;;4.00;;
20000;SDS011;10161;41.188;-8.642;2022-07-24T11:08:12;7.70;;;4.30;;
20000;SDS011;10161;41.188;-8.642;2022-07-24T11:10:59;4.93;;;3.70;;
20000;SDS011;10161;41.188;-8.642;2022-07-24T11:13:43;5.50;;;3.67;;
20000;SDS011;10161;41.188;-8.642;2022-07-24T11:16:22;5.73;;;3.90;;
20000;SDS011;10161;41.188;-8.642;2022-07-24T11:22:10;6.63;;;3.70;;
20000;SDS011;10161;41.188;-8.642;2022-07-24T11:24:41;8.17;;;3.47;;
20000;SDS011;10161;41.188;-8.642;2022-07-24T11:27:13;7.10;;;4.33;;
20000;SDS011;10161;41.188;-8.642;2022-07-24T11:33:00;5.17;;;3.13;;
20000;SDS011;10161;41.188;-8.642;2022-07-24T11:35:28;6.17;;;3.83;;
20000;SDS011;10161;41.188;-8.642;2022-07-24T11:37:59;5.37;;;3.40;;
20000;SDS011;10161;41.188;-8.642;2022-07-24T11:40:27;7.07;;;3.60;;
20000;SDS011;10161;41.188;-8.642;2022-07-24T11:42:54;5.50;;;3.33;;
20000;SDS011;10161;41.188;-8.642;2022-07-24T11:45:22;6.60;;;3.83;;
20000;SDS011;10161;41.188;-8.642;2022-07-24T11:47:49;6.20;;;3.50;;
20000;SDS011;10161;41.188;-8.642;2022-07-24T11:50:21;7.50;;;3.70;;
20000;SDS011;10161;41.188;-8.642;2022-07-24T11:56:01;5.73;;;3.13;;
20000;SDS011;10161;41.188;-8.642;2022-07-24T11:58:29;6.67;;;3.57;;
20000;SDS011;10161;41.188;-8.642;2022-07-24T12:00:56;8.57;;;3.37;;
20000;SDS011;10161;41.188;-8.642;2022-07-24T12:03:23;7.23;;;3.87;;
20000;SDS011;10161;41.188;-8.642;2022-07-24T12:05:52;6.00;;;2.97;;
20000;SDS011;10161;41.188;-8.642;2022-07-24T12:08:19;8.13;;;3.50;;
20000;SDS011;10161;41.188;-8.642;2022-07-24T12:10:54;5.13;;;3.33;;
20000;SDS011;10161;41.188;-8.642;2022-07-24T12:13:21;5.43;;;3.00;;
20000;SDS011;10161;41.188;-8.642;2022-07-24T12:15:48;7.60;;;3.30;;
20000;SDS011;10161;41.188;-8.642;2022-07-24T12:18:16;7.23;;;3.63;;
20000;SDS011;10161;41.188;-8.642;2022-07-24T12:20:44;6.40;;;3.30;;
20000;SDS011;10161;41.188;-8.642;2022-07-24T12:23:14;9.50;;;4.20;;
20000;SDS011;10161;41.188;-8.642;2022-07-24T12:25:43;8.37;;;2.93;;
20000;SDS011;10161;41.188;-8.642;2022-07-24T12:28:11;7.43;;;3.20;;
20000;SDS011;10161;41.188;-8.642;2022-07-24T12:30:39;8.07;;;3.10;;
20000;SDS011;10161;41.188;-8.642;2022-07-24T12:33:08;8.60;;;3.87;;
20000;SDS011;10161;41.188;-8.642;2022-07-24T12:35:51;5.33;;;3.30;;
20000;SDS011;10161;41.188;-8.642;2022-07-24T12:38:25;6.97;;;3.10;;
20000;SDS011;10161;41.188;-8.642;2022-07-24T12:41:00;7.00;;;2.90;;
20000;SDS011;10161;41.188;-8.642;2022-07-24T12:43:28;7.00;;;3.40;;
20000;SDS011;10161;41.188;-8.642;2022-07-24T12:46:05;8.70;;;3.30;;
20000;SDS011;10161;41.188;-8.642;2022-07-24T12:48:33;9.93;;;3.57;;
20000;SDS011;10161;41.188;-8.642;2022-07-24T12:51:04;4.97;;;3.30;;
20000;SDS011;10161;41.188;-8.642;2022-07-24T12:53:36;8.03;;;3.77;;
20000;SDS011;10161;41.188;-8.642;2022-07-24T12:56:06;4.30;;;2.80;;
20000;SDS011;10161;41.188;-8.642;2022-07-24T12:58:51;6.77;;;3.20;;
20000;SDS011;10161;41.188;-8.642;2022-07-24T13:01:27;6.60;;;3.23;;
20000;SDS011;10161;41.188;-8.642;2022-07-24T13:03:56;8.73;;;3.30;;
20000;SDS011;10161;41.188;-8.642;2022-07-24T13:06:32;9.90;;;3.63;;
20000;SDS011;10161;41.188;-8.642;2022-07-24T13:09:11;5.47;;;3.10;;
20000;SDS011;10161;41.188;-8.642;2022-07-24T13:11:42;6.80;;;3.37;;
20000;SDS011;10161;41.188;-8.642;2022-07-24T13:14:11;8.73;;;3.27;;
20000;SDS011;10161;41.188;-8.642;2022-07-24T13:16:38;7.13;;;3.70;;
20000;SDS011;10161;41.188;-8.642;2022-07-24T13:19:07;3.97;;;2.90;;
20000;SDS011;10161;41.188;-8.642;2022-07-24T13:21:34;11.70;;;6.90;;
20000;SDS011;10161;41.188;-8.642;2022-07-24T13:24:02;10.77;;;6.33;;
20000;SDS011;10161;41.188;-8.642;2022-07-24T13:26:31;14.50;;;9.80;;
20000;SDS011;10161;41.188;-8.642;2022-07-24T13:28:58;15.63;;;9.23;;
20000;SDS011;10161;41.188;-8.642;2022-07-24T13:31:25;14.20;;;10.50;;
20000;SDS011;10161;41.188;-8.642;2022-07-24T13:33:52;18.10;;;14.87;;
20000;SDS011;10161;41.188;-8.642;2022-07-24T13:36:19;21.10;;;14.83;;
20000;SDS011;10161;41.188;-8.642;2022-07-24T13:38:46;20.30;;;15.07;;
20000;SDS011;10161;41.188;-8.642;2022-07-24T13:41:14;20.57;;;14.30;;
20000;SDS011;10161;41.188;-8.642;2022-07-24T13:43:45;18.63;;;13.30;;
20000;SDS011;10161;41.188;-8.642;2022-07-24T13:46:12;13.60;;;11.23;;
20000;SDS011;10161;41.188;-8.642;2022-07-24T13:48:39;12.70;;;9.70;;
20000;SDS011;10161;41.188;-8.642;2022-07-24T13:51:06;13.33;;;9.23;;
20000;SDS011;10161;41.188;-8.642;2022-07-24T13:53:33;17.60;;;9.17;;
20000;SDS011;10161;41.188;-8.642;2022-07-24T13:56:00;14.20;;;7.20;;
20000;SDS011;10161;41.188;-8.642;2022-07-24T13:58:35;10.60;;;6.90;;
20000;SDS011;10161;41.188;-8.642;2022-07-24T14:01:04;10.03;;;6.30;;
20000;SDS011;10161;41.188;-8.642;2022-07-24T14:03:31;9.30;;;4.93;;
20000;SDS011;10161;41.188;-8.642;2022-07-24T14:05:59;8.80;;;4.60;;
20000;SDS011;10161;41.188;-8.642;2022-07-24T14:08:26;6.10;;;3.73;;
20000;SDS011;10161;41.188;-8.642;2022-07-24T14:10:54;7.40;;;4.03;;
20000;SDS011;10161;41.188;-8.642;2022-07-24T14:13:21;6.20;;;3.73;;
20000;SDS011;10161;41.188;-8.642;2022-07-24T14:15:48;6.37;;;3.60;;
20000;SDS011;10161;41.188;-8.642;2022-07-24T14:18:16;8.20;;;4.53;;
20000;SDS011;10161;41.188;-8.642;2022-07-24T14:20:43;7.20;;;4.10;;
20000;SDS011;10161;41.188;-8.642;2022-07-24T14:23:10;7.97;;;4.20;;
20000;SDS011;10161;41.188;-8.642;2022-07-24T14:25:37;8.30;;;4.40;;
20000;SDS011;10161;41.188;-8.642;2022-07-24T14:30:50;10.00;;;4.93;;
20000;SDS011;10161;41.188;-8.642;2022-07-24T14:33:18;7.80;;;4.93;;
20000;SDS011;10161;41.188;-8.642;2022-07-24T14:35:47;6.90;;;4.43;;
20000;SDS011;10161;41.188;-8.642;2022-07-24T14:38:14;8.47;;;4.77;;
20000;SDS011;10161;41.188;-8.642;2022-07-24T14:40:41;6.87;;;4.10;;
20000;SDS011;10161;41.188;-8.642;2022-07-24T14:43:08;5.97;;;3.57;;
20000;SDS011;10161;41.188;-8.642;2022-07-24T14:45:35;7.13;;;4.37;;
20000;SDS011;10161;41.188;-8.642;2022-07-24T14:48:03;7.07;;;3.60;;
20000;SDS011;10161;41.188;-8.642;2022-07-24T14:50:32;4.70;;;3.70;;
20000;SDS011;10161;41.188;-8.642;2022-07-24T14:52:59;5.13;;;3.60;;
20000;SDS011;10161;41.188;-8.642;2022-07-24T14:55:26;4.47;;;2.90;;
20000;SDS011;10161;41.188;-8.642;2022-07-24T14:57:53;5.13;;;3.00;;
20000;SDS011;10161;41.188;-8.642;2022-07-24T15:00:20;6.27;;;3.40;;
20000;SDS011;10161;41.188;-8.642;2022-07-24T15:02:47;9.53;;;3.80;;
20000;SDS011;10161;41.188;-8.642;2022-07-24T15:05:14;5.00;;;3.37;;
20000;SDS011;10161;41.188;-8.642;2022-07-24T15:07:42;6.03;;;3.00;;
20000;SDS011;10161;41.188;-8.642;2022-07-24T15:10:09;4.03;;;2.90;;
20000;SDS011;10161;41.188;-8.642;2022-07-24T15:12:36;5.33;;;3.23;;
20000;SDS011;10161;41.188;-8.642;2022-07-24T15:15:04;4.33;;;2.37;;
20000;SDS011;10161;41.188;-8.642;2022-07-24T15:17:31;6.87;;;3.07;;
20000;SDS011;10161;41.188;-8.642;2022-07-24T15:20:00;4.40;;;2.70;;
20000;SDS011;10161;41.188;-8.642;2022-07-24T15:22:36;5.00;;;2.90;;
20000;SDS011;10161;41.188;-8.642;2022-07-24T15:25:05;6.23;;;2.93;;
20000;SDS011;10161;41.188;-8.642;2022-07-24T15:27:32;5.83;;;3.23;;
20000;SDS011;10161;41.188;-8.642;2022-07-24T15:29:59;6.03;;;2.70;;
20000;SDS011;10161;41.188;-8.642;2022-07-24T15:32:36;5.83;;;2.77;;
20000;SDS011;10161;41.188;-8.642;2022-07-24T15:35:03;4.67;;;2.63;;